createdAt,value
2022-10-01T00:01:48.794Z,57.36
2022-10-01T00:04:15.753Z,57.17
2022-10-01T00:06:43.425Z,57.29
2022-10-01T00:09:10.369Z,57.16
2022-10-01T00:11:37.513Z,57.45
2022-10-01T00:14:04.980Z,57.38
2022-10-01T00:16:32.331Z,57.54
2022-10-01T00:19:00.389Z,57.41
2022-10-01T00:21:31.945Z,57.49
2022-10-01T00:24:04.473Z,57.86
2022-10-01T00:26:37.450Z,57.79
2022-10-01T00:29:08.028Z,57.91
2022-10-01T00:31:36.716Z,57.92
2022-10-01T00:34:04.741Z,57.75
2022-10-01T00:36:32.558Z,57.66
2022-10-01T00:39:02.906Z,58.31
2022-10-01T00:41:33.676Z,58.26
2022-10-01T00:44:23.570Z,58.21
2022-10-01T00:46:51.588Z,58.09
2022-10-01T00:49:24.192Z,58.55
2022-10-01T00:51:57.989Z,58.00
2022-10-01T00:55:00.045Z,57.90
2022-10-01T00:57:27.667Z,58.34
2022-10-01T01:00:00.024Z,58.49
2022-10-01T01:02:27.440Z,58.17
2022-10-01T01:04:54.510Z,58.18
2022-10-01T01:07:22.174Z,58.02
2022-10-01T01:09:51.537Z,58.48
2022-10-01T01:12:30.390Z,58.61
2022-10-01T01:15:11.722Z,58.42
2022-10-01T01:18:05.548Z,58.42
2022-10-01T01:21:39.011Z,58.17
2022-10-01T01:25:02.139Z,58.29
2022-10-01T01:27:46.719Z,58.68
2022-10-01T01:30:16.499Z,58.71
2022-10-01T01:33:06.035Z,59.23
2022-10-01T01:35:39.455Z,59.52
2022-10-01T01:38:22.042Z,59.56
2022-10-01T01:40:51.589Z,59.40
2022-10-01T01:43:24.958Z,59.56
2022-10-01T01:45:56.046Z,59.59
2022-10-01T01:48:24.712Z,59.02
2022-10-01T01:51:26.260Z,59.39
2022-10-01T01:53:54.510Z,59.43
2022-10-01T01:56:21.632Z,59.63
2022-10-01T01:58:49.131Z,59.34
2022-10-01T02:01:40.499Z,59.60
2022-10-01T02:04:21.901Z,59.47
2022-10-01T02:07:28.437Z,59.67
2022-10-01T02:10:16.554Z,59.94
2022-10-01T02:13:16.496Z,59.74
2022-10-01T02:16:09.722Z,59.36
2022-10-01T02:19:03.390Z,59.22
2022-10-01T02:21:42.173Z,59.27
2022-10-01T02:24:29.152Z,59.29
2022-10-01T02:26:57.446Z,59.27
2022-10-01T02:29:24.593Z,59.25
2022-10-01T02:31:55.643Z,59.34
2022-10-01T02:34:29.341Z,59.40
2022-10-01T02:36:59.672Z,59.10
2022-10-01T02:39:30.094Z,58.95
2022-10-01T02:42:00.739Z,59.03
2022-10-01T02:44:38.030Z,58.92
2022-10-01T02:47:21.597Z,58.91
2022-10-01T02:49:50.625Z,59.07
2022-10-01T02:52:34.436Z,58.78
2022-10-01T02:55:09.060Z,59.08
2022-10-01T02:57:37.232Z,59.06
2022-10-01T03:00:13.700Z,59.34
2022-10-01T03:02:40.828Z,59.16
2022-10-01T03:05:09.075Z,59.39
2022-10-01T03:07:36.521Z,59.21
2022-10-01T03:10:05.478Z,59.36
2022-10-01T03:12:33.248Z,59.44
2022-10-01T03:15:00.230Z,59.39
2022-10-01T03:17:27.435Z,59.12
2022-10-01T03:19:55.063Z,59.18
2022-10-01T03:22:23.030Z,59.59
2022-10-01T03:24:53.674Z,60.20
2022-10-01T03:27:21.895Z,60.13
2022-10-01T03:29:49.400Z,59.96
2022-10-01T03:32:17.350Z,59.43
2022-10-01T03:34:44.309Z,59.79
2022-10-01T03:37:11.361Z,59.60
2022-10-01T03:39:38.341Z,59.73
2022-10-01T03:42:07.997Z,59.61
2022-10-01T03:44:34.957Z,59.52
2022-10-01T03:47:02.078Z,59.33
2022-10-01T03:49:29.459Z,59.55
2022-10-01T03:51:57.039Z,59.34
2022-10-01T03:54:25.625Z,59.56
2022-10-01T03:56:52.617Z,59.82
2022-10-01T03:59:19.928Z,59.64
2022-10-01T04:01:46.920Z,59.77
2022-10-01T04:04:14.925Z,59.63
2022-10-01T04:06:42.028Z,59.78
2022-10-01T04:09:09.820Z,59.66
2022-10-01T04:11:37.843Z,59.63
2022-10-01T04:14:05.143Z,59.67
2022-10-01T04:16:36.072Z,60.16
2022-10-01T04:19:05.735Z,59.92
2022-10-01T04:21:33.065Z,59.79
2022-10-01T04:24:01.066Z,59.85
2022-10-01T04:26:28.201Z,60.01
2022-10-01T04:28:55.114Z,60.04
2022-10-01T04:31:25.543Z,60.18
2022-10-01T04:33:55.406Z,60.25
2022-10-01T04:36:23.913Z,60.44
2022-10-01T04:38:54.647Z,60.31
2022-10-01T04:41:24.079Z,60.55
2022-10-01T04:43:50.961Z,60.32
2022-10-01T04:46:18.319Z,60.30
2022-10-01T04:48:45.277Z,59.79
2022-10-01T04:51:12.450Z,60.35
2022-10-01T04:53:39.369Z,60.22
2022-10-01T04:56:07.192Z,60.29
2022-10-01T04:58:34.175Z,60.21
2022-10-01T05:01:02.412Z,60.29
2022-10-01T05:03:31.522Z,60.26
2022-10-01T05:05:58.683Z,60.44
2022-10-01T05:08:25.649Z,60.11
2022-10-01T05:10:53.151Z,60.60
2022-10-01T05:13:20.069Z,60.55
2022-10-01T05:15:52.424Z,60.35
2022-10-01T05:18:19.575Z,60.40
2022-10-01T05:20:46.833Z,60.51
2022-10-01T05:23:13.953Z,60.68
2022-10-01T05:25:41.278Z,60.64
2022-10-01T05:28:08.624Z,60.64
2022-10-01T05:30:37.916Z,61.03
2022-10-01T05:33:05.731Z,60.82
2022-10-01T05:35:33.236Z,60.99
2022-10-01T05:38:04.414Z,60.89
2022-10-01T05:40:36.070Z,60.88
2022-10-01T05:43:04.324Z,61.18
2022-10-01T05:45:32.416Z,61.08
2022-10-01T05:48:05.710Z,61.29
2022-10-01T05:50:42.527Z,61.30
2022-10-01T05:53:12.369Z,61.25
2022-10-01T05:55:39.573Z,61.41
2022-10-01T05:58:10.364Z,61.38
2022-10-01T06:00:39.492Z,61.45
2022-10-01T06:03:07.101Z,61.62
2022-10-01T06:05:36.070Z,61.61
2022-10-01T06:08:07.010Z,61.74
2022-10-01T06:10:36.935Z,61.65
2022-10-01T06:13:05.608Z,62.17
2022-10-01T06:15:37.886Z,62.00
2022-10-01T06:18:10.706Z,62.15
2022-10-01T06:20:42.247Z,62.06
2022-10-01T06:23:12.448Z,62.64
2022-10-01T06:25:46.152Z,62.46
2022-10-01T06:28:15.515Z,62.65
2022-10-01T06:30:43.052Z,62.70
2022-10-01T06:33:14.517Z,62.68
2022-10-01T06:35:48.262Z,62.75
2022-10-01T06:38:17.462Z,62.55
2022-10-01T06:40:44.706Z,62.47
2022-10-01T06:43:11.924Z,62.17
2022-10-01T06:45:44.258Z,62.26
2022-10-01T06:48:16.062Z,61.86
2022-10-01T06:50:44.964Z,61.92
2022-10-01T06:53:13.189Z,62.16
2022-10-01T06:55:43.543Z,62.19
2022-10-01T06:58:17.489Z,62.41
2022-10-01T07:00:45.377Z,62.17
2022-10-01T07:03:17.265Z,62.36
2022-10-01T07:05:49.774Z,61.78
2022-10-01T07:08:17.963Z,62.31
2022-10-01T07:10:45.751Z,62.11
2022-10-01T07:13:18.530Z,61.80
2022-10-01T07:15:47.027Z,61.42
2022-10-01T07:18:14.522Z,61.14
2022-10-01T07:20:41.843Z,60.74
2022-10-01T07:23:15.491Z,60.96
2022-10-01T07:25:43.862Z,60.37
2022-10-01T07:28:20.325Z,60.67
2022-10-01T07:31:03.792Z,61.05
2022-10-01T07:33:30.922Z,61.13
2022-10-01T07:36:01.791Z,60.83
2022-10-01T07:38:30.004Z,60.92
2022-10-01T07:40:59.002Z,60.74
2022-10-01T07:43:27.274Z,60.39
2022-10-01T07:45:58.258Z,60.83
2022-10-01T07:48:26.238Z,59.63
2022-10-01T07:50:54.989Z,59.03
2022-10-01T07:53:24.786Z,58.71
2022-10-01T07:55:54.264Z,55.54
2022-10-01T07:58:24.172Z,56.14
2022-10-01T08:00:56.033Z,55.61
2022-10-01T08:03:23.672Z,56.30
2022-10-01T08:05:53.696Z,56.07
2022-10-01T08:08:20.854Z,56.78
2022-10-01T08:10:50.038Z,55.82
2022-10-01T08:13:18.059Z,56.11
2022-10-01T08:15:50.590Z,56.30
2022-10-01T08:18:17.647Z,56.21
2022-10-01T08:20:44.637Z,56.52
2022-10-01T08:23:15.111Z,56.32
2022-10-01T08:25:43.558Z,56.37
2022-10-01T08:28:12.079Z,55.84
2022-10-01T08:30:41.837Z,55.53
2022-10-01T08:33:12.835Z,55.77
2022-10-01T08:35:43.864Z,55.36
2022-10-01T08:38:13.092Z,54.71
2022-10-01T08:41:07.541Z,55.35
2022-10-01T08:43:39.559Z,55.79
2022-10-01T08:46:16.714Z,55.57
2022-10-01T08:48:56.887Z,56.13
2022-10-01T08:51:46.313Z,55.21
2022-10-01T08:54:34.936Z,55.81
2022-10-01T08:57:05.378Z,55.54
2022-10-01T08:59:44.233Z,55.96
2022-10-01T09:02:27.257Z,55.73
2022-10-01T09:05:02.916Z,52.99
2022-10-01T09:08:16.153Z,52.57
2022-10-01T09:10:53.380Z,53.44
2022-10-01T09:13:32.287Z,52.02
2022-10-01T09:16:27.438Z,52.31
2022-10-01T09:19:19.864Z,50.05
2022-10-01T09:21:57.937Z,51.52
2022-10-01T09:25:10.132Z,51.41
2022-10-01T09:27:38.916Z,51.41
2022-10-01T09:30:14.497Z,51.37
2022-10-01T09:32:57.554Z,51.44
2022-10-01T09:35:44.696Z,51.79
2022-10-01T09:38:23.557Z,51.00
2022-10-01T09:40:57.672Z,50.95
2022-10-01T09:43:40.494Z,49.85
2022-10-01T09:46:13.624Z,49.23
2022-10-01T09:49:05.121Z,50.48
2022-10-01T09:51:45.706Z,50.16
2022-10-01T09:54:43.117Z,48.74
2022-10-01T09:57:20.499Z,49.87
2022-10-01T10:00:10.524Z,50.04
2022-10-01T10:02:49.577Z,49.71
2022-10-01T10:05:20.404Z,49.25
2022-10-01T10:07:57.843Z,49.74
2022-10-01T10:10:30.398Z,49.30
2022-10-01T10:13:02.977Z,49.11
2022-10-01T10:15:33.254Z,48.09
2022-10-01T10:18:23.959Z,49.14
2022-10-01T10:20:54.030Z,48.11
2022-10-01T10:23:34.368Z,46.33
2022-10-01T10:26:07.283Z,46.84
2022-10-01T10:28:44.646Z,45.52
2022-10-01T10:31:29.010Z,45.06
2022-10-01T10:34:38.470Z,45.84
2022-10-01T10:37:19.367Z,44.40
2022-10-01T10:39:51.548Z,44.70
2022-10-01T10:42:19.779Z,45.58
2022-10-01T10:44:50.006Z,43.86
2022-10-01T10:47:23.138Z,43.80
2022-10-01T10:49:58.635Z,44.27
2022-10-01T10:52:33.272Z,44.17
2022-10-01T10:55:25.115Z,43.49
2022-10-01T10:57:57.342Z,43.52
2022-10-01T11:00:26.461Z,43.07
2022-10-01T11:03:05.451Z,43.15
2022-10-01T11:05:41.375Z,43.49
2022-10-01T11:08:20.403Z,43.08
2022-10-01T11:11:01.936Z,43.81
2022-10-01T11:14:23.301Z,43.76
2022-10-01T11:17:40.569Z,42.49
2022-10-01T11:20:27.450Z,41.31
2022-10-01T11:23:25.244Z,42.18
2022-10-01T11:26:16.810Z,42.58
2022-10-01T11:29:09.019Z,41.88
2022-10-01T11:32:05.081Z,41.74
2022-10-01T11:35:00.878Z,41.72
2022-10-01T11:38:14.246Z,42.37
2022-10-01T11:40:44.571Z,42.86
2022-10-01T11:43:31.743Z,42.72
2022-10-01T11:46:13.696Z,41.56
2022-10-01T11:49:02.395Z,42.59
2022-10-01T11:51:42.995Z,41.47
2022-10-01T11:54:20.704Z,42.06
2022-10-01T11:57:14.060Z,40.78
2022-10-01T11:59:58.558Z,41.50
2022-10-01T12:02:52.480Z,42.00
2022-10-01T12:05:25.187Z,42.03
2022-10-01T12:08:16.486Z,41.08
2022-10-01T12:11:13.354Z,41.78
2022-10-01T12:13:48.024Z,41.07
2022-10-01T12:16:44.755Z,41.63
2022-10-01T12:19:49.668Z,41.96
2022-10-01T12:22:34.803Z,42.50
2022-10-01T12:25:01.839Z,42.13
2022-10-01T12:27:56.659Z,42.48
2022-10-01T12:30:38.214Z,42.35
2022-10-01T12:33:32.721Z,42.52
2022-10-01T12:36:30.982Z,42.46
2022-10-01T12:39:19.629Z,42.58
2022-10-01T12:42:09.597Z,42.41
2022-10-01T12:44:49.174Z,42.13
2022-10-01T12:47:42.959Z,42.26
2022-10-01T12:50:30.537Z,41.07
2022-10-01T12:53:12.503Z,40.20
2022-10-01T12:56:03.215Z,41.65
2022-10-01T12:59:06.573Z,41.44
2022-10-01T13:02:19.739Z,41.85
2022-10-01T13:05:08.214Z,42.67
2022-10-01T13:08:02.445Z,42.21
2022-10-01T13:10:40.693Z,42.56
2022-10-01T13:13:25.675Z,42.79
2022-10-01T13:16:09.987Z,43.50
2022-10-01T13:19:03.192Z,43.87
2022-10-01T13:21:42.198Z,43.91
2022-10-01T13:24:37.361Z,43.95
2022-10-01T13:27:07.518Z,44.60
2022-10-01T13:30:04.812Z,45.49
2022-10-01T13:32:57.706Z,46.10
2022-10-01T13:35:57.813Z,45.77
2022-10-01T13:38:38.872Z,46.22
2022-10-01T13:41:30.331Z,46.81
2022-10-01T13:44:11.505Z,46.52
2022-10-01T13:47:03.360Z,47.05
2022-10-01T13:49:32.133Z,46.83
2022-10-01T13:51:59.925Z,47.43
2022-10-01T13:54:46.548Z,47.45
2022-10-01T13:57:38.922Z,47.56
2022-10-01T14:00:22.811Z,47.83
2022-10-01T14:03:27.526Z,48.00
2022-10-01T14:05:57.961Z,48.39
2022-10-01T14:08:48.054Z,48.73
2022-10-01T14:11:40.114Z,48.19
2022-10-01T14:14:42.986Z,48.05
2022-10-01T14:17:11.446Z,47.86
2022-10-01T14:19:47.026Z,47.70
2022-10-01T14:22:23.654Z,47.78
2022-10-01T14:25:02.737Z,47.67
2022-10-01T14:27:48.226Z,48.01
2022-10-01T14:30:20.645Z,47.47
2022-10-01T14:33:18.274Z,47.76
2022-10-01T14:36:11.267Z,47.87
2022-10-01T14:38:38.281Z,47.31
2022-10-01T14:41:05.442Z,47.90
2022-10-01T14:43:33.630Z,47.62
2022-10-01T14:46:06.151Z,47.65
2022-10-01T14:48:35.590Z,47.87
2022-10-01T14:51:06.815Z,47.77
2022-10-01T14:53:38.105Z,48.33
2022-10-01T14:56:15.195Z,49.03
2022-10-01T14:58:52.416Z,49.84
2022-10-01T15:01:24.188Z,50.62
2022-10-01T15:03:52.539Z,50.91
2022-10-01T15:06:24.282Z,51.29
2022-10-01T15:08:55.021Z,52.84
2022-10-01T15:11:25.984Z,54.55
2022-10-01T15:14:03.286Z,55.04
2022-10-01T15:16:30.807Z,55.11
2022-10-01T15:19:20.838Z,56.34
2022-10-01T15:21:55.823Z,56.92
2022-10-01T15:24:38.138Z,57.34
2022-10-01T15:27:11.634Z,57.18
2022-10-01T15:29:42.066Z,57.49
2022-10-01T15:32:18.581Z,57.84
2022-10-01T15:34:56.992Z,58.11
2022-10-01T15:37:33.627Z,57.68
2022-10-01T15:40:02.189Z,60.68
2022-10-01T15:42:33.135Z,59.01
2022-10-01T15:45:09.216Z,58.58
2022-10-01T15:47:42.191Z,59.57
2022-10-01T15:50:12.013Z,58.75
2022-10-01T15:52:51.368Z,59.54
2022-10-01T15:55:28.118Z,58.97
2022-10-01T15:58:17.850Z,59.21
2022-10-01T16:00:48.813Z,59.55
2022-10-01T16:03:38.857Z,59.36
2022-10-01T16:06:20.103Z,59.46
2022-10-01T16:09:06.173Z,58.71
2022-10-01T16:12:05.506Z,58.93
2022-10-01T16:14:59.894Z,59.85
2022-10-01T16:17:35.659Z,59.07
2022-10-01T16:20:35.177Z,59.28
2022-10-01T16:23:44.479Z,59.27
2022-10-01T16:26:33.052Z,59.14
2022-10-01T16:29:14.288Z,58.37
2022-10-01T16:31:44.472Z,58.80
2022-10-01T16:34:17.770Z,59.12
2022-10-01T16:36:45.253Z,59.46
2022-10-01T16:39:15.818Z,59.22
2022-10-01T16:41:56.528Z,59.08
2022-10-01T16:44:38.389Z,59.54
2022-10-01T16:47:05.795Z,59.06
2022-10-01T16:49:32.981Z,60.09
2022-10-01T16:52:00.027Z,59.16
2022-10-01T16:54:28.035Z,59.03
2022-10-01T16:56:55.422Z,59.07
2022-10-01T16:59:24.699Z,59.37
2022-10-01T17:01:54.900Z,59.32
2022-10-01T17:04:22.655Z,58.67
2022-10-01T17:06:49.962Z,59.24
2022-10-01T17:09:17.216Z,58.87
2022-10-01T17:11:44.661Z,58.98
2022-10-01T17:14:17.713Z,58.60
2022-10-01T17:16:45.508Z,59.42
2022-10-01T17:19:13.267Z,59.38
2022-10-01T17:21:41.315Z,58.98
2022-10-01T17:24:11.535Z,59.22
2022-10-01T17:26:45.272Z,58.73
2022-10-01T17:29:12.892Z,58.45
2022-10-01T17:31:41.292Z,58.89
2022-10-01T17:34:08.298Z,58.88
2022-10-01T17:36:35.508Z,58.62
2022-10-01T17:39:02.874Z,58.32
2022-10-01T17:41:30.162Z,58.47
2022-10-01T17:43:58.092Z,58.34
2022-10-01T17:46:25.044Z,58.25
2022-10-01T17:48:52.183Z,57.99
2022-10-01T17:51:19.970Z,57.96
2022-10-01T17:53:47.843Z,58.70
2022-10-01T17:56:19.117Z,58.63
2022-10-01T17:58:47.295Z,58.47
2022-10-01T18:01:19.749Z,58.38
2022-10-01T18:03:47.492Z,58.53
2022-10-01T18:06:16.322Z,58.22
2022-10-01T18:08:55.080Z,59.02
2022-10-01T18:11:25.801Z,58.49
2022-10-01T18:13:53.141Z,58.14
2022-10-01T18:16:20.660Z,58.22
2022-10-01T18:19:51.846Z,58.50
2022-10-01T18:21:37.241Z,58.04
2022-10-01T18:24:05.085Z,57.91
2022-10-01T18:26:36.140Z,57.77
2022-10-01T18:29:03.665Z,57.88
2022-10-01T18:31:44.489Z,57.64
2022-10-01T18:34:49.793Z,57.65
2022-10-01T18:37:37.651Z,58.19
2022-10-01T18:40:23.833Z,58.15
2022-10-01T18:43:12.061Z,58.36
2022-10-01T18:46:22.050Z,58.39
2022-10-01T18:49:16.771Z,58.68
2022-10-01T18:52:11.094Z,59.48
2022-10-01T18:55:02.549Z,58.92
2022-10-01T18:58:13.925Z,59.40
2022-10-01T19:01:25.631Z,59.17
2022-10-01T19:04:16.299Z,59.50
2022-10-01T19:07:09.128Z,59.25
2022-10-01T19:10:00.151Z,59.40
2022-10-01T19:12:34.183Z,59.84
2022-10-01T19:15:43.000Z,59.58
2022-10-01T19:18:54.140Z,59.50
2022-10-01T19:21:35.784Z,59.72
2022-10-01T19:24:24.686Z,60.22
2022-10-01T19:27:10.118Z,59.65
2022-10-01T19:29:47.475Z,60.13
2022-10-01T19:32:33.111Z,60.24
2022-10-01T19:35:19.073Z,60.92
2022-10-01T19:37:54.032Z,60.22
2022-10-01T19:40:43.240Z,60.99
2022-10-01T19:43:30.833Z,61.19
2022-10-01T19:46:36.135Z,61.13
2022-10-01T19:49:09.381Z,61.27
2022-10-01T19:51:42.481Z,61.41
2022-10-01T19:54:19.953Z,61.05
2022-10-01T19:56:52.748Z,61.69
2022-10-01T19:59:20.920Z,61.08
2022-10-01T20:02:14.677Z,61.58
2022-10-01T20:05:01.347Z,61.35
2022-10-01T20:08:00.703Z,61.63
2022-10-01T20:10:45.330Z,61.87
2022-10-01T20:13:18.012Z,61.65
2022-10-01T20:16:47.068Z,60.94
2022-10-01T20:19:40.777Z,60.97
2022-10-01T20:22:22.810Z,61.25
2022-10-01T20:25:25.477Z,61.28
2022-10-01T20:28:16.411Z,61.50
2022-10-01T20:30:58.196Z,61.83
2022-10-01T20:34:02.258Z,61.93
2022-10-01T20:37:11.688Z,61.85
2022-10-01T20:39:48.693Z,62.44
2022-10-01T20:42:24.139Z,61.59
2022-10-01T20:44:52.906Z,61.80
2022-10-01T20:47:37.128Z,61.24
2022-10-01T20:50:19.172Z,61.11
2022-10-01T20:53:24.832Z,61.61
2022-10-01T20:56:01.446Z,61.74
2022-10-01T20:58:44.467Z,62.19
2022-10-01T21:01:24.511Z,61.74
2022-10-01T21:04:04.236Z,62.34
2022-10-01T21:06:35.402Z,62.01
2022-10-01T21:09:27.850Z,62.08
2022-10-01T21:12:00.209Z,62.18
2022-10-01T21:14:49.373Z,61.65
2022-10-01T21:17:44.045Z,62.35
2022-10-01T21:20:36.904Z,62.13
2022-10-01T21:23:31.756Z,61.87
2022-10-01T21:26:17.294Z,62.03
2022-10-01T21:29:16.906Z,61.40
2022-10-01T21:32:20.878Z,61.60
2022-10-01T21:35:12.308Z,61.41
2022-10-01T21:38:05.730Z,61.53
2022-10-01T21:40:47.571Z,61.86
2022-10-01T21:43:35.485Z,61.69
2022-10-01T21:46:39.444Z,62.12
2022-10-01T21:49:17.813Z,62.10
2022-10-01T21:52:15.721Z,62.23
2022-10-01T21:55:19.632Z,62.04
2022-10-01T21:58:01.348Z,61.89
2022-10-01T22:00:29.533Z,62.75
2022-10-01T22:03:23.871Z,63.05
2022-10-01T22:06:37.748Z,63.98
2022-10-01T22:09:22.399Z,64.81
2022-10-01T22:11:54.617Z,65.36
2022-10-01T22:14:31.400Z,65.20
2022-10-01T22:17:12.127Z,65.13
2022-10-01T22:19:45.474Z,65.81
2022-10-01T22:22:29.171Z,66.57
2022-10-01T22:25:00.228Z,66.34
2022-10-01T22:27:41.488Z,67.08
2022-10-01T22:30:22.470Z,66.53
2022-10-01T22:33:05.907Z,66.32
2022-10-01T22:35:49.638Z,66.28
2022-10-01T22:38:45.968Z,66.05
2022-10-01T22:41:33.492Z,66.14
2022-10-01T22:44:16.496Z,66.38
2022-10-01T22:47:43.841Z,66.02
2022-10-01T22:50:31.787Z,66.24
2022-10-01T22:53:30.932Z,66.31
2022-10-01T22:55:58.426Z,67.22
2022-10-01T22:59:19.933Z,67.40
2022-10-01T23:02:17.016Z,67.44
2022-10-01T23:04:50.921Z,68.13
2022-10-01T23:07:36.590Z,67.10
2022-10-01T23:10:21.676Z,67.02
2022-10-01T23:13:42.920Z,67.09
2022-10-01T23:16:47.846Z,66.37
2022-10-01T23:19:56.637Z,66.94
2022-10-01T23:23:20.546Z,67.36
2022-10-01T23:26:17.223Z,67.39
2022-10-01T23:29:05.470Z,67.27
2022-10-01T23:32:20.694Z,67.07
2022-10-01T23:35:13.740Z,68.20
2022-10-01T23:38:18.186Z,67.95
2022-10-01T23:40:48.406Z,68.39
2022-10-01T23:43:23.918Z,67.73
2022-10-01T23:46:31.261Z,67.42
2022-10-01T23:49:16.668Z,68.09
2022-10-01T23:52:09.518Z,68.49
2022-10-01T23:54:48.217Z,68.54
2022-10-01T23:57:28.333Z,68.52
